sensor_id;sensor_type;location;lat;lon;timestamp;P1;durP1;ratioP1;P2;durP2;ratioP2
64500;SDS011;50874;24.150;-110.320;2023-03-31T00:01:48;21.42;;;3.17;;
64500;SDS011;50874;24.150;-110.320;2023-03-31T00:04:17;28.23;;;4.50;;
64500;SDS011;50874;24.150;-110.320;2023-03-31T00:06:48;57.67;;;6.80;;
64500;SDS011;50874;24.150;-110.320;2023-03-31T00:09:18;48.05;;;7.18;;
64500;SDS011;50874;24.150;-110.320;2023-03-31T00:11:46;32.15;;;5.55;;
64500;SDS011;50874;24.150;-110.320;2023-03-31T00:14:14;16.40;;;3.17;;
64500;SDS011;50874;24.150;-110.320;2023-03-31T00:16:42;25.10;;;4.15;;
64500;SDS011;50874;24.150;-110.320;2023-03-31T00:19:10;49.03;;;5.15;;
64500;SDS011;50874;24.150;-110.320;2023-03-31T00:21:48;12.83;;;2.97;;
64500;SDS011;50874;24.150;-110.320;2023-03-31T00:24:16;34.35;;;4.20;;
64500;SDS011;50874;24.150;-110.320;2023-03-31T00:26:43;11.02;;;3.08;;
64500;SDS011;50874;24.150;-110.320;2023-03-31T00:29:10;15.23;;;3.60;;
64500;SDS011;50874;24.150;-110.320;2023-03-31T00:31:38;16.55;;;3.08;;
64500;SDS011;50874;24.150;-110.320;2023-03-31T00:34:05;20.95;;;3.25;;
64500;SDS011;50874;24.150;-110.320;2023-03-31T00:36:32;36.80;;;4.65;;
64500;SDS011;50874;24.150;-110.320;2023-03-31T00:39:02;19.00;;;3.95;;
64500;SDS011;50874;24.150;-110.320;2023-03-31T00:41:33;26.98;;;4.57;;
64500;SDS011;50874;24.150;-110.320;2023-03-31T00:46:57;26.85;;;4.72;;
64500;SDS011;50874;24.150;-110.320;2023-03-31T00:49:48;29.30;;;4.07;;
64500;SDS011;50874;24.150;-110.320;2023-03-31T00:52:20;19.10;;;3.67;;
64500;SDS011;50874;24.150;-110.320;2023-03-31T00:55:04;44.92;;;6.75;;
64500;SDS011;50874;24.150;-110.320;2023-03-31T00:57:38;41.90;;;5.63;;
64500;SDS011;50874;24.150;-110.320;2023-03-31T01:00:07;42.25;;;6.40;;
64500;SDS011;50874;24.150;-110.320;2023-03-31T01:02:42;25.92;;;3.70;;
64500;SDS011;50874;24.150;-110.320;2023-03-31T01:05:25;29.95;;;4.60;;
64500;SDS011;50874;24.150;-110.320;2023-03-31T01:08:06;30.45;;;4.03;;
64500;SDS011;50874;24.150;-110.320;2023-03-31T01:10:35;30.95;;;3.85;;
64500;SDS011;50874;24.150;-110.320;2023-03-31T01:13:07;19.00;;;3.47;;
64500;SDS011;50874;24.150;-110.320;2023-03-31T01:15:35;23.20;;;4.15;;
64500;SDS011;50874;24.150;-110.320;2023-03-31T01:18:02;27.52;;;3.65;;
64500;SDS011;50874;24.150;-110.320;2023-03-31T01:20:36;38.35;;;4.53;;
64500;SDS011;50874;24.150;-110.320;2023-03-31T02:02:37;18.65;;;2.47;;
64500;SDS011;50874;24.150;-110.320;2023-03-31T02:05:26;36.25;;;3.83;;
64500;SDS011;50874;24.150;-110.320;2023-03-31T02:07:59;31.92;;;4.88;;
64500;SDS011;50874;24.150;-110.320;2023-03-31T02:10:31;33.60;;;4.23;;
64500;SDS011;50874;24.150;-110.320;2023-03-31T02:12:59;13.98;;;2.95;;
64500;SDS011;50874;24.150;-110.320;2023-03-31T02:15:35;20.40;;;2.70;;
64500;SDS011;50874;24.150;-110.320;2023-03-31T02:18:03;22.08;;;3.35;;
64500;SDS011;50874;24.150;-110.320;2023-03-31T02:20:37;26.08;;;3.33;;
64500;SDS011;50874;24.150;-110.320;2023-03-31T02:23:09;25.10;;;3.80;;
64500;SDS011;50874;24.150;-110.320;2023-03-31T02:25:42;203.05;;;25.02;;
64500;SDS011;50874;24.150;-110.320;2023-03-31T02:28:23;45.80;;;5.65;;
64500;SDS011;50874;24.150;-110.320;2023-03-31T02:31:04;37.70;;;4.83;;
64500;SDS011;50874;24.150;-110.320;2023-03-31T02:33:42;28.95;;;4.03;;
64500;SDS011;50874;24.150;-110.320;2023-03-31T02:36:08;21.52;;;5.05;;
64500;SDS011;50874;24.150;-110.320;2023-03-31T02:38:37;80.75;;;10.68;;
64500;SDS011;50874;24.150;-110.320;2023-03-31T02:41:08;57.00;;;7.28;;
64500;SDS011;50874;24.150;-110.320;2023-03-31T02:43:35;42.70;;;5.75;;
64500;SDS011;50874;24.150;-110.320;2023-03-31T02:46:01;46.28;;;5.63;;
64500;SDS011;50874;24.150;-110.320;2023-03-31T02:48:29;20.73;;;3.40;;
64500;SDS011;50874;24.150;-110.320;2023-03-31T02:51:12;19.27;;;4.93;;
64500;SDS011;50874;24.150;-110.320;2023-03-31T03:02:40;18.48;;;4.00;;
64500;SDS011;50874;24.150;-110.320;2023-03-31T03:08:18;19.27;;;4.10;;
64500;SDS011;50874;24.150;-110.320;2023-03-31T03:16:51;29.40;;;4.57;;
64500;SDS011;50874;24.150;-110.320;2023-03-31T03:19:34;39.03;;;4.22;;
64500;SDS011;50874;24.150;-110.320;2023-03-31T03:22:01;45.38;;;5.30;;
64500;SDS011;50874;24.150;-110.320;2023-03-31T03:24:27;45.92;;;6.57;;
64500;SDS011;50874;24.150;-110.320;2023-03-31T03:26:54;79.20;;;10.20;;
64500;SDS011;50874;24.150;-110.320;2023-03-31T03:29:21;62.38;;;8.80;;
64500;SDS011;50874;24.150;-110.320;2023-03-31T03:31:48;60.53;;;7.50;;
64500;SDS011;50874;24.150;-110.320;2023-03-31T03:34:14;44.60;;;7.50;;
64500;SDS011;50874;24.150;-110.320;2023-03-31T03:36:42;31.15;;;5.38;;
64500;SDS011;50874;24.150;-110.320;2023-03-31T03:39:09;26.98;;;4.75;;
64500;SDS011;50874;24.150;-110.320;2023-03-31T03:41:36;40.58;;;7.57;;
64500;SDS011;50874;24.150;-110.320;2023-03-31T03:44:03;56.40;;;9.52;;
64500;SDS011;50874;24.150;-110.320;2023-03-31T03:46:30;55.17;;;9.05;;
64500;SDS011;50874;24.150;-110.320;2023-03-31T03:48:57;59.78;;;7.88;;
64500;SDS011;50874;24.150;-110.320;2023-03-31T03:51:23;64.72;;;8.95;;
64500;SDS011;50874;24.150;-110.320;2023-03-31T03:53:50;109.10;;;13.45;;
64500;SDS011;50874;24.150;-110.320;2023-03-31T03:56:16;92.75;;;10.80;;
64500;SDS011;50874;24.150;-110.320;2023-03-31T03:58:42;85.82;;;9.98;;
64500;SDS011;50874;24.150;-110.320;2023-03-31T04:01:09;81.80;;;11.82;;
64500;SDS011;50874;24.150;-110.320;2023-03-31T04:03:35;41.42;;;5.95;;
64500;SDS011;50874;24.150;-110.320;2023-03-31T04:06:02;37.60;;;6.18;;
64500;SDS011;50874;24.150;-110.320;2023-03-31T04:08:28;190.68;;;21.83;;
64500;SDS011;50874;24.150;-110.320;2023-03-31T04:10:55;116.63;;;15.23;;
64500;SDS011;50874;24.150;-110.320;2023-03-31T04:13:21;95.75;;;12.75;;
64500;SDS011;50874;24.150;-110.320;2023-03-31T04:15:48;65.53;;;8.90;;
64500;SDS011;50874;24.150;-110.320;2023-03-31T04:18:14;89.43;;;10.82;;
64500;SDS011;50874;24.150;-110.320;2023-03-31T04:20:48;182.05;;;18.73;;
64500;SDS011;50874;24.150;-110.320;2023-03-31T04:23:33;99.97;;;12.25;;
64500;SDS011;50874;24.150;-110.320;2023-03-31T04:26:07;70.30;;;10.40;;
64500;SDS011;50874;24.150;-110.320;2023-03-31T04:28:35;62.10;;;9.25;;
64500;SDS011;50874;24.150;-110.320;2023-03-31T04:31:02;51.45;;;7.47;;
64500;SDS011;50874;24.150;-110.320;2023-03-31T04:33:33;91.47;;;11.23;;
64500;SDS011;50874;24.150;-110.320;2023-03-31T04:36:03;60.85;;;10.00;;
64500;SDS011;50874;24.150;-110.320;2023-03-31T04:38:42;50.45;;;7.90;;
64500;SDS011;50874;24.150;-110.320;2023-03-31T04:41:11;41.58;;;6.85;;
64500;SDS011;50874;24.150;-110.320;2023-03-31T04:43:39;48.13;;;5.88;;
64500;SDS011;50874;24.150;-110.320;2023-03-31T04:46:05;37.30;;;6.30;;
64500;SDS011;50874;24.150;-110.320;2023-03-31T04:48:32;30.58;;;4.53;;
64500;SDS011;50874;24.150;-110.320;2023-03-31T04:50:58;25.98;;;4.47;;
64500;SDS011;50874;24.150;-110.320;2023-03-31T04:53:25;20.33;;;3.65;;
64500;SDS011;50874;24.150;-110.320;2023-03-31T04:55:51;30.25;;;4.55;;
64500;SDS011;50874;24.150;-110.320;2023-03-31T04:58:18;55.50;;;8.60;;
64500;SDS011;50874;24.150;-110.320;2023-03-31T05:00:45;30.30;;;4.32;;
64500;SDS011;50874;24.150;-110.320;2023-03-31T05:03:11;28.58;;;4.63;;
64500;SDS011;50874;24.150;-110.320;2023-03-31T05:05:37;31.02;;;4.70;;
64500;SDS011;50874;24.150;-110.320;2023-03-31T05:08:04;43.55;;;4.60;;
64500;SDS011;50874;24.150;-110.320;2023-03-31T05:10:31;87.10;;;10.20;;
64500;SDS011;50874;24.150;-110.320;2023-03-31T05:12:57;81.85;;;8.65;;
64500;SDS011;50874;24.150;-110.320;2023-03-31T05:15:23;53.50;;;8.45;;
64500;SDS011;50874;24.150;-110.320;2023-03-31T05:17:50;59.13;;;8.27;;
64500;SDS011;50874;24.150;-110.320;2023-03-31T05:20:18;62.03;;;8.32;;
64500;SDS011;50874;24.150;-110.320;2023-03-31T05:22:45;86.90;;;12.90;;
64500;SDS011;50874;24.150;-110.320;2023-03-31T05:25:12;60.97;;;8.05;;
64500;SDS011;50874;24.150;-110.320;2023-03-31T05:27:43;87.53;;;10.45;;
64500;SDS011;50874;24.150;-110.320;2023-03-31T05:30:14;129.75;;;14.48;;
64500;SDS011;50874;24.150;-110.320;2023-03-31T05:32:42;97.18;;;13.00;;
64500;SDS011;50874;24.150;-110.320;2023-03-31T05:35:09;131.32;;;16.23;;
64500;SDS011;50874;24.150;-110.320;2023-03-31T05:37:35;114.55;;;14.10;;
64500;SDS011;50874;24.150;-110.320;2023-03-31T05:40:02;81.60;;;11.50;;
64500;SDS011;50874;24.150;-110.320;2023-03-31T05:42:30;66.70;;;8.77;;
64500;SDS011;50874;24.150;-110.320;2023-03-31T05:44:56;51.28;;;8.30;;
64500;SDS011;50874;24.150;-110.320;2023-03-31T05:47:22;61.38;;;9.45;;
64500;SDS011;50874;24.150;-110.320;2023-03-31T05:49:49;32.25;;;4.88;;
64500;SDS011;50874;24.150;-110.320;2023-03-31T05:52:16;44.08;;;6.38;;
64500;SDS011;50874;24.150;-110.320;2023-03-31T05:54:43;25.65;;;3.63;;
64500;SDS011;50874;24.150;-110.320;2023-03-31T05:57:09;32.10;;;4.78;;
64500;SDS011;50874;24.150;-110.320;2023-03-31T05:59:36;29.48;;;4.28;;
64500;SDS011;50874;24.150;-110.320;2023-03-31T06:02:02;37.53;;;4.55;;
64500;SDS011;50874;24.150;-110.320;2023-03-31T06:04:29;44.30;;;6.25;;
64500;SDS011;50874;24.150;-110.320;2023-03-31T06:06:57;26.10;;;4.78;;
64500;SDS011;50874;24.150;-110.320;2023-03-31T06:09:23;17.13;;;3.30;;
64500;SDS011;50874;24.150;-110.320;2023-03-31T06:11:50;27.33;;;3.20;;
64500;SDS011;50874;24.150;-110.320;2023-03-31T06:14:17;21.75;;;3.00;;
64500;SDS011;50874;24.150;-110.320;2023-03-31T06:16:43;29.85;;;4.78;;
64500;SDS011;50874;24.150;-110.320;2023-03-31T06:19:12;25.75;;;4.57;;
64500;SDS011;50874;24.150;-110.320;2023-03-31T06:21:39;40.97;;;5.28;;
64500;SDS011;50874;24.150;-110.320;2023-03-31T06:24:05;36.33;;;4.18;;
64500;SDS011;50874;24.150;-110.320;2023-03-31T06:26:34;25.70;;;3.97;;
64500;SDS011;50874;24.150;-110.320;2023-03-31T06:29:00;36.78;;;4.47;;
64500;SDS011;50874;24.150;-110.320;2023-03-31T06:31:27;25.92;;;4.72;;
64500;SDS011;50874;24.150;-110.320;2023-03-31T06:33:53;29.35;;;4.53;;
64500;SDS011;50874;24.150;-110.320;2023-03-31T06:36:20;36.05;;;5.70;;
64500;SDS011;50874;24.150;-110.320;2023-03-31T06:38:48;35.80;;;4.75;;
64500;SDS011;50874;24.150;-110.320;2023-03-31T06:41:15;25.17;;;3.70;;
64500;SDS011;50874;24.150;-110.320;2023-03-31T06:43:44;24.60;;;3.78;;
64500;SDS011;50874;24.150;-110.320;2023-03-31T06:46:11;18.33;;;3.38;;
64500;SDS011;50874;24.150;-110.320;2023-03-31T06:48:38;35.85;;;4.72;;
64500;SDS011;50874;24.150;-110.320;2023-03-31T06:51:05;31.80;;;4.82;;
64500;SDS011;50874;24.150;-110.320;2023-03-31T06:53:33;43.92;;;5.68;;
64500;SDS011;50874;24.150;-110.320;2023-03-31T06:56:01;110.20;;;12.95;;
64500;SDS011;50874;24.150;-110.320;2023-03-31T06:58:28;42.80;;;7.53;;
64500;SDS011;50874;24.150;-110.320;2023-03-31T07:00:54;35.65;;;5.05;;
64500;SDS011;50874;24.150;-110.320;2023-03-31T07:03:21;25.67;;;4.45;;
64500;SDS011;50874;24.150;-110.320;2023-03-31T07:05:49;45.90;;;6.82;;
64500;SDS011;50874;24.150;-110.320;2023-03-31T07:08:17;36.53;;;6.38;;
64500;SDS011;50874;24.150;-110.320;2023-03-31T07:10:44;47.83;;;6.13;;
64500;SDS011;50874;24.150;-110.320;2023-03-31T07:13:13;97.93;;;10.15;;
64500;SDS011;50874;24.150;-110.320;2023-03-31T07:15:40;27.88;;;4.57;;
64500;SDS011;50874;24.150;-110.320;2023-03-31T07:18:07;15.80;;;3.13;;
64500;SDS011;50874;24.150;-110.320;2023-03-31T07:20:34;10.80;;;2.45;;
64500;SDS011;50874;24.150;-110.320;2023-03-31T07:23:02;13.48;;;2.58;;
64500;SDS011;50874;24.150;-110.320;2023-03-31T07:25:30;14.35;;;2.25;;
64500;SDS011;50874;24.150;-110.320;2023-03-31T07:27:57;11.88;;;3.08;;
64500;SDS011;50874;24.150;-110.320;2023-03-31T07:30:23;12.30;;;2.70;;
64500;SDS011;50874;24.150;-110.320;2023-03-31T07:32:50;16.92;;;2.78;;
64500;SDS011;50874;24.150;-110.320;2023-03-31T07:35:17;14.48;;;2.92;;
64500;SDS011;50874;24.150;-110.320;2023-03-31T07:37:46;27.38;;;4.63;;
64500;SDS011;50874;24.150;-110.320;2023-03-31T07:40:16;35.00;;;4.70;;
64500;SDS011;50874;24.150;-110.320;2023-03-31T07:42:46;21.55;;;3.13;;
64500;SDS011;50874;24.150;-110.320;2023-03-31T07:45:16;27.17;;;3.42;;
64500;SDS011;50874;24.150;-110.320;2023-03-31T07:47:44;14.60;;;4.38;;
64500;SDS011;50874;24.150;-110.320;2023-03-31T07:50:11;15.27;;;3.15;;
64500;SDS011;50874;24.150;-110.320;2023-03-31T07:52:38;9.60;;;2.20;;
64500;SDS011;50874;24.150;-110.320;2023-03-31T07:55:05;17.90;;;3.25;;
64500;SDS011;50874;24.150;-110.320;2023-03-31T07:57:33;12.82;;;2.50;;
64500;SDS011;50874;24.150;-110.320;2023-03-31T08:00:00;26.63;;;4.40;;
64500;SDS011;50874;24.150;-110.320;2023-03-31T08:02:31;16.60;;;2.97;;
64500;SDS011;50874;24.150;-110.320;2023-03-31T08:04:58;20.08;;;2.78;;
64500;SDS011;50874;24.150;-110.320;2023-03-31T08:07:25;17.67;;;3.53;;
64500;SDS011;50874;24.150;-110.320;2023-03-31T08:09:55;18.73;;;2.90;;
64500;SDS011;50874;24.150;-110.320;2023-03-31T08:12:22;18.05;;;3.10;;
64500;SDS011;50874;24.150;-110.320;2023-03-31T08:14:49;11.60;;;2.60;;
64500;SDS011;50874;24.150;-110.320;2023-03-31T08:17:16;13.20;;;3.17;;
64500;SDS011;50874;24.150;-110.320;2023-03-31T08:19:42;11.35;;;2.35;;
64500;SDS011;50874;24.150;-110.320;2023-03-31T08:22:09;8.40;;;3.30;;
64500;SDS011;50874;24.150;-110.320;2023-03-31T08:24:35;12.65;;;2.80;;
64500;SDS011;50874;24.150;-110.320;2023-03-31T08:27:02;31.15;;;3.00;;
64500;SDS011;50874;24.150;-110.320;2023-03-31T08:29:28;7.25;;;2.50;;
64500;SDS011;50874;24.150;-110.320;2023-03-31T08:31:54;19.83;;;3.50;;
64500;SDS011;50874;24.150;-110.320;2023-03-31T08:34:21;17.05;;;2.92;;
64500;SDS011;50874;24.150;-110.320;2023-03-31T08:36:47;9.35;;;2.42;;
64500;SDS011;50874;24.150;-110.320;2023-03-31T08:39:14;21.70;;;3.67;;
64500;SDS011;50874;24.150;-110.320;2023-03-31T08:44:28;14.02;;;3.55;;
64500;SDS011;50874;24.150;-110.320;2023-03-31T08:47:00;18.08;;;3.35;;
64500;SDS011;50874;24.150;-110.320;2023-03-31T08:49:30;16.48;;;3.15;;
64500;SDS011;50874;24.150;-110.320;2023-03-31T08:52:11;23.35;;;3.58;;
64500;SDS011;50874;24.150;-110.320;2023-03-31T08:55:04;17.30;;;3.38;;
64500;SDS011;50874;24.150;-110.320;2023-03-31T09:00:39;14.98;;;2.22;;
64500;SDS011;50874;24.150;-110.320;2023-03-31T09:06:07;10.73;;;2.92;;
64500;SDS011;50874;24.150;-110.320;2023-03-31T09:08:43;14.07;;;2.50;;
64500;SDS011;50874;24.150;-110.320;2023-03-31T09:16:47;29.60;;;3.90;;
64500;SDS011;50874;24.150;-110.320;2023-03-31T09:19:35;17.13;;;3.63;;
64500;SDS011;50874;24.150;-110.320;2023-03-31T09:22:09;30.92;;;4.18;;
64500;SDS011;50874;24.150;-110.320;2023-03-31T09:27:39;9.60;;;2.45;;
64500;SDS011;50874;24.150;-110.320;2023-03-31T09:30:09;8.98;;;2.33;;
64500;SDS011;50874;24.150;-110.320;2023-03-31T09:32:38;11.25;;;3.15;;
64500;SDS011;50874;24.150;-110.320;2023-03-31T09:37:50;11.90;;;2.20;;
64500;SDS011;50874;24.150;-110.320;2023-03-31T09:40:20;11.85;;;3.20;;
64500;SDS011;50874;24.150;-110.320;2023-03-31T09:42:57;7.95;;;2.40;;
64500;SDS011;50874;24.150;-110.320;2023-03-31T09:45:29;9.55;;;2.65;;
64500;SDS011;50874;24.150;-110.320;2023-03-31T09:48:00;15.70;;;2.22;;
64500;SDS011;50874;24.150;-110.320;2023-03-31T09:50:40;13.32;;;3.30;;
64500;SDS011;50874;24.150;-110.320;2023-03-31T09:53:19;16.65;;;2.88;;
64500;SDS011;50874;24.150;-110.320;2023-03-31T09:55:53;12.30;;;2.15;;
64500;SDS011;50874;24.150;-110.320;2023-03-31T09:58:21;6.15;;;2.08;;
64500;SDS011;50874;24.150;-110.320;2023-03-31T10:00:59;9.25;;;2.45;;
64500;SDS011;50874;24.150;-110.320;2023-03-31T10:03:30;11.82;;;2.55;;
64500;SDS011;50874;24.150;-110.320;2023-03-31T10:06:01;7.28;;;2.05;;
64500;SDS011;50874;24.150;-110.320;2023-03-31T10:08:39;6.63;;;2.45;;
64500;SDS011;50874;24.150;-110.320;2023-03-31T10:11:08;16.85;;;2.25;;
64500;SDS011;50874;24.150;-110.320;2023-03-31T10:13:43;8.32;;;1.77;;
64500;SDS011;50874;24.150;-110.320;2023-03-31T10:16:22;17.27;;;3.50;;
64500;SDS011;50874;24.150;-110.320;2023-03-31T10:21:45;4.45;;;2.03;;
64500;SDS011;50874;24.150;-110.320;2023-03-31T10:24:17;14.23;;;2.53;;
64500;SDS011;50874;24.150;-110.320;2023-03-31T10:26:47;10.60;;;2.88;;
64500;SDS011;50874;24.150;-110.320;2023-03-31T10:29:18;7.10;;;1.90;;
64500;SDS011;50874;24.150;-110.320;2023-03-31T10:31:49;9.07;;;2.22;;
64500;SDS011;50874;24.150;-110.320;2023-03-31T10:34:16;11.18;;;2.50;;
64500;SDS011;50874;24.150;-110.320;2023-03-31T10:36:47;12.60;;;2.03;;
64500;SDS011;50874;24.150;-110.320;2023-03-31T10:39:16;9.85;;;2.33;;
64500;SDS011;50874;24.150;-110.320;2023-03-31T10:41:52;20.98;;;3.67;;
64500;SDS011;50874;24.150;-110.320;2023-03-31T10:44:32;12.38;;;2.33;;
64500;SDS011;50874;24.150;-110.320;2023-03-31T10:47:15;22.20;;;2.80;;
64500;SDS011;50874;24.150;-110.320;2023-03-31T10:49:44;11.48;;;2.20;;
64500;SDS011;50874;24.150;-110.320;2023-03-31T10:52:23;16.13;;;2.38;;
64500;SDS011;50874;24.150;-110.320;2023-03-31T10:55:00;8.57;;;2.00;;
64500;SDS011;50874;24.150;-110.320;2023-03-31T11:01:07;8.07;;;2.15;;
64500;SDS011;50874;24.150;-110.320;2023-03-31T11:08:45;25.33;;;2.97;;
64500;SDS011;50874;24.150;-110.320;2023-03-31T11:25:07;13.60;;;2.83;;
64500;SDS011;50874;24.150;-110.320;2023-03-31T11:44:18;10.60;;;3.13;;
64500;SDS011;50874;24.150;-110.320;2023-03-31T11:49:22;12.07;;;3.03;;
64500;SDS011;50874;24.150;-110.320;2023-03-31T11:52:05;10.07;;;3.33;;
64500;SDS011;50874;24.150;-110.320;2023-03-31T11:54:35;5.30;;;2.40;;
64500;SDS011;50874;24.150;-110.320;2023-03-31T11:57:20;7.22;;;2.30;;
64500;SDS011;50874;24.150;-110.320;2023-03-31T11:59:53;6.97;;;2.33;;
64500;SDS011;50874;24.150;-110.320;2023-03-31T12:05:21;14.10;;;2.78;;
64500;SDS011;50874;24.150;-110.320;2023-03-31T12:07:54;14.15;;;2.33;;
64500;SDS011;50874;24.150;-110.320;2023-03-31T12:10:36;5.88;;;2.10;;
64500;SDS011;50874;24.150;-110.320;2023-03-31T12:15:38;19.08;;;3.25;;
64500;SDS011;50874;24.150;-110.320;2023-03-31T12:18:14;7.30;;;2.40;;
64500;SDS011;50874;24.150;-110.320;2023-03-31T12:20:55;7.10;;;2.13;;
64500;SDS011;50874;24.150;-110.320;2023-03-31T12:23:26;14.40;;;3.15;;
64500;SDS011;50874;24.150;-110.320;2023-03-31T12:29:03;8.65;;;2.60;;
64500;SDS011;50874;24.150;-110.320;2023-03-31T12:31:43;9.93;;;2.35;;
64500;SDS011;50874;24.150;-110.320;2023-03-31T12:34:11;11.68;;;2.63;;
64500;SDS011;50874;24.150;-110.320;2023-03-31T12:39:36;11.52;;;2.80;;
64500;SDS011;50874;24.150;-110.320;2023-03-31T12:45:04;13.30;;;2.35;;
64500;SDS011;50874;24.150;-110.320;2023-03-31T12:47:58;10.60;;;2.38;;
64500;SDS011;50874;24.150;-110.320;2023-03-31T12:53:55;10.65;;;2.88;;
64500;SDS011;50874;24.150;-110.320;2023-03-31T13:04:49;15.25;;;2.63;;
64500;SDS011;50874;24.150;-110.320;2023-03-31T13:10:22;11.77;;;3.30;;
64500;SDS011;50874;24.150;-110.320;2023-03-31T13:13:02;6.53;;;2.05;;
64500;SDS011;50874;24.150;-110.320;2023-03-31T13:15:31;6.90;;;2.38;;
64500;SDS011;50874;24.150;-110.320;2023-03-31T13:17:58;10.95;;;2.22;;
64500;SDS011;50874;24.150;-110.320;2023-03-31T13:20:34;9.43;;;2.63;;
64500;SDS011;50874;24.150;-110.320;2023-03-31T13:23:18;9.50;;;2.70;;
64500;SDS011;50874;24.150;-110.320;2023-03-31T13:25:56;14.55;;;2.55;;
64500;SDS011;50874;24.150;-110.320;2023-03-31T13:28:30;16.33;;;3.17;;
64500;SDS011;50874;24.150;-110.320;2023-03-31T13:33:29;12.15;;;2.80;;
64500;SDS011;50874;24.150;-110.320;2023-03-31T13:36:13;13.98;;;2.92;;
64500;SDS011;50874;24.150;-110.320;2023-03-31T13:41:51;13.00;;;3.22;;
64500;SDS011;50874;24.150;-110.320;2023-03-31T14:07:45;20.20;;;3.45;;
64500;SDS011;50874;24.150;-110.320;2023-03-31T14:10:29;21.58;;;3.45;;
64500;SDS011;50874;24.150;-110.320;2023-03-31T14:13:18;13.52;;;3.60;;
64500;SDS011;50874;24.150;-110.320;2023-03-31T14:15:51;14.13;;;2.58;;
64500;SDS011;50874;24.150;-110.320;2023-03-31T14:18:24;18.17;;;3.05;;
64500;SDS011;50874;24.150;-110.320;2023-03-31T14:23:42;11.35;;;2.10;;
64500;SDS011;50874;24.150;-110.320;2023-03-31T14:32:04;10.32;;;1.90;;
64500;SDS011;50874;24.150;-110.320;2023-03-31T14:34:40;21.30;;;2.00;;
64500;SDS011;50874;24.150;-110.320;2023-03-31T14:37:18;36.75;;;3.78;;
64500;SDS011;50874;24.150;-110.320;2023-03-31T14:39:47;18.98;;;2.83;;
64500;SDS011;50874;24.150;-110.320;2023-03-31T14:42:22;22.38;;;2.40;;
64500;SDS011;50874;24.150;-110.320;2023-03-31T14:45:19;28.20;;;3.03;;
64500;SDS011;50874;24.150;-110.320;2023-03-31T14:47:52;25.73;;;3.58;;
64500;SDS011;50874;24.150;-110.320;2023-03-31T14:50:20;16.77;;;2.50;;
64500;SDS011;50874;24.150;-110.320;2023-03-31T14:52:52;25.95;;;3.42;;
64500;SDS011;50874;24.150;-110.320;2023-03-31T14:55:23;10.95;;;2.53;;
64500;SDS011;50874;24.150;-110.320;2023-03-31T14:57:53;31.85;;;3.15;;
64500;SDS011;50874;24.150;-110.320;2023-03-31T15:00:31;15.02;;;2.83;;
64500;SDS011;50874;24.150;-110.320;2023-03-31T15:03:00;22.02;;;2.75;;
64500;SDS011;50874;24.150;-110.320;2023-03-31T15:05:31;52.60;;;6.22;;
64500;SDS011;50874;24.150;-110.320;2023-03-31T15:08:04;17.40;;;2.75;;
64500;SDS011;50874;24.150;-110.320;2023-03-31T15:10:36;13.93;;;2.70;;
64500;SDS011;50874;24.150;-110.320;2023-03-31T15:13:08;22.08;;;2.17;;
64500;SDS011;50874;24.150;-110.320;2023-03-31T15:15:36;24.50;;;4.35;;
64500;SDS011;50874;24.150;-110.320;2023-03-31T15:18:12;40.20;;;3.85;;
64500;SDS011;50874;24.150;-110.320;2023-03-31T15:20:42;34.72;;;4.22;;
64500;SDS011;50874;24.150;-110.320;2023-03-31T15:23:20;29.88;;;2.80;;
64500;SDS011;50874;24.150;-110.320;2023-03-31T15:25:56;25.27;;;3.00;;
64500;SDS011;50874;24.150;-110.320;2023-03-31T15:28:26;29.65;;;4.93;;
64500;SDS011;50874;24.150;-110.320;2023-03-31T15:30:57;25.52;;;3.70;;
64500;SDS011;50874;24.150;-110.320;2023-03-31T15:33:39;22.27;;;2.60;;
64500;SDS011;50874;24.150;-110.320;2023-03-31T15:39:55;33.58;;;3.63;;
64500;SDS011;50874;24.150;-110.320;2023-03-31T15:42:25;18.42;;;2.63;;
64500;SDS011;50874;24.150;-110.320;2023-03-31T15:48:02;37.25;;;4.53;;
64500;SDS011;50874;24.150;-110.320;2023-03-31T15:50:31;15.85;;;3.05;;
64500;SDS011;50874;24.150;-110.320;2023-03-31T15:53:53;17.40;;;3.25;;
64500;SDS011;50874;24.150;-110.320;2023-03-31T16:04:22;30.48;;;4.35;;
64500;SDS011;50874;24.150;-110.320;2023-03-31T16:13:07;37.78;;;5.32;;
64500;SDS011;50874;24.150;-110.320;2023-03-31T16:15:46;44.17;;;6.05;;
64500;SDS011;50874;24.150;-110.320;2023-03-31T16:24:51;29.73;;;4.07;;
64500;SDS011;50874;24.150;-110.320;2023-03-31T16:27:21;35.25;;;4.63;;
64500;SDS011;50874;24.150;-110.320;2023-03-31T16:30:36;84.85;;;8.45;;
64500;SDS011;50874;24.150;-110.320;2023-03-31T16:37:06;51.65;;;6.40;;
64500;SDS011;50874;24.150;-110.320;2023-03-31T16:45:37;32.88;;;2.78;;
64500;SDS011;50874;24.150;-110.320;2023-03-31T16:48:07;68.50;;;6.82;;
64500;SDS011;50874;24.150;-110.320;2023-03-31T16:50:34;29.55;;;3.80;;
64500;SDS011;50874;24.150;-110.320;2023-03-31T16:53:00;47.40;;;4.95;;
64500;SDS011;50874;24.150;-110.320;2023-03-31T16:55:29;53.97;;;6.07;;
64500;SDS011;50874;24.150;-110.320;2023-03-31T17:00:39;39.95;;;4.20;;
64500;SDS011;50874;24.150;-110.320;2023-03-31T17:03:16;17.58;;;3.15;;
64500;SDS011;50874;24.150;-110.320;2023-03-31T17:05:43;56.08;;;4.53;;
64500;SDS011;50874;24.150;-110.320;2023-03-31T17:08:13;48.75;;;4.85;;
64500;SDS011;50874;24.150;-110.320;2023-03-31T17:10:51;35.72;;;3.33;;
64500;SDS011;50874;24.150;-110.320;2023-03-31T17:13:20;25.30;;;2.65;;
64500;SDS011;50874;24.150;-110.320;2023-03-31T17:15:47;22.05;;;3.17;;
64500;SDS011;50874;24.150;-110.320;2023-03-31T17:18:14;93.22;;;7.97;;
64500;SDS011;50874;24.150;-110.320;2023-03-31T17:20:41;42.28;;;4.35;;
64500;SDS011;50874;24.150;-110.320;2023-03-31T17:23:08;21.13;;;3.88;;
64500;SDS011;50874;24.150;-110.320;2023-03-31T17:25:51;50.75;;;5.82;;
64500;SDS011;50874;24.150;-110.320;2023-03-31T17:28:57;28.85;;;3.50;;
64500;SDS011;50874;24.150;-110.320;2023-03-31T17:31:25;38.22;;;4.32;;
64500;SDS011;50874;24.150;-110.320;2023-03-31T17:33:52;29.90;;;4.15;;
64500;SDS011;50874;24.150;-110.320;2023-03-31T17:36:21;39.65;;;3.83;;
64500;SDS011;50874;24.150;-110.320;2023-03-31T17:38:48;25.35;;;3.60;;
64500;SDS011;50874;24.150;-110.320;2023-03-31T17:41:14;24.88;;;2.88;;
64500;SDS011;50874;24.150;-110.320;2023-03-31T17:43:45;35.70;;;3.63;;
64500;SDS011;50874;24.150;-110.320;2023-03-31T17:46:13;26.73;;;3.67;;
64500;SDS011;50874;24.150;-110.320;2023-03-31T17:48:40;45.00;;;6.93;;
64500;SDS011;50874;24.150;-110.320;2023-03-31T17:51:08;37.08;;;3.03;;
64500;SDS011;50874;24.150;-110.320;2023-03-31T17:53:38;31.23;;;4.38;;
64500;SDS011;50874;24.150;-110.320;2023-03-31T17:56:06;18.70;;;2.92;;
64500;SDS011;50874;24.150;-110.320;2023-03-31T17:58:36;32.20;;;3.95;;
64500;SDS011;50874;24.150;-110.320;2023-03-31T18:01:03;17.15;;;2.92;;
64500;SDS011;50874;24.150;-110.320;2023-03-31T18:03:32;40.90;;;4.93;;
64500;SDS011;50874;24.150;-110.320;2023-03-31T18:06:06;24.55;;;4.68;;
64500;SDS011;50874;24.150;-110.320;2023-03-31T18:08:38;52.88;;;7.57;;
64500;SDS011;50874;24.150;-110.320;2023-03-31T18:11:06;45.63;;;5.60;;